sensor_id;sensor_type;location;lat;lon;timestamp;P1;durP1;ratioP1;P2;durP2;ratioP2
74371;SDS011;62885;51.374;6.170;2022-10-31T00:01:31;15.33;;;8.87;;
74371;SDS011;62885;51.374;6.170;2022-10-31T00:04:01;14.60;;;7.95;;
74371;SDS011;62885;51.374;6.170;2022-10-31T00:06:27;17.30;;;8.88;;
74371;SDS011;62885;51.374;6.170;2022-10-31T00:08:55;16.65;;;9.02;;
74371;SDS011;62885;51.374;6.170;2022-10-31T00:11:22;17.10;;;8.52;;
74371;SDS011;62885;51.374;6.170;2022-10-31T00:13:48;16.83;;;8.43;;
74371;SDS011;62885;51.374;6.170;2022-10-31T00:16:14;21.80;;;9.43;;
74371;SDS011;62885;51.374;6.170;2022-10-31T00:18:40;19.20;;;9.05;;
74371;SDS011;62885;51.374;6.170;2022-10-31T00:21:05;17.40;;;10.05;;
74371;SDS011;62885;51.374;6.170;2022-10-31T00:23:31;17.92;;;9.35;;
74371;SDS011;62885;51.374;6.170;2022-10-31T00:26:00;17.48;;;9.05;;
74371;SDS011;62885;51.374;6.170;2022-10-31T00:30:52;17.03;;;7.57;;
74371;SDS011;62885;51.374;6.170;2022-10-31T00:33:17;21.83;;;9.63;;
74371;SDS011;62885;51.374;6.170;2022-10-31T00:35:48;12.75;;;8.23;;
74371;SDS011;62885;51.374;6.170;2022-10-31T00:38:14;21.73;;;9.77;;
74371;SDS011;62885;51.374;6.170;2022-10-31T00:40:39;18.17;;;8.82;;
74371;SDS011;62885;51.374;6.170;2022-10-31T00:43:05;17.90;;;9.63;;
74371;SDS011;62885;51.374;6.170;2022-10-31T00:45:30;18.55;;;9.52;;
74371;SDS011;62885;51.374;6.170;2022-10-31T00:47:55;18.77;;;10.15;;
74371;SDS011;62885;51.374;6.170;2022-10-31T00:50:20;17.17;;;9.75;;
74371;SDS011;62885;51.374;6.170;2022-10-31T00:52:46;18.23;;;9.00;;
74371;SDS011;62885;51.374;6.170;2022-10-31T00:55:11;15.57;;;8.77;;
74371;SDS011;62885;51.374;6.170;2022-10-31T00:57:37;16.92;;;9.85;;
74371;SDS011;62885;51.374;6.170;2022-10-31T01:00:02;16.55;;;9.57;;
74371;SDS011;62885;51.374;6.170;2022-10-31T01:02:28;18.20;;;9.10;;
74371;SDS011;62885;51.374;6.170;2022-10-31T01:04:54;19.83;;;10.98;;
74371;SDS011;62885;51.374;6.170;2022-10-31T01:07:19;19.25;;;11.27;;
74371;SDS011;62885;51.374;6.170;2022-10-31T01:09:44;16.88;;;9.52;;
74371;SDS011;62885;51.374;6.170;2022-10-31T01:12:09;21.93;;;8.97;;
74371;SDS011;62885;51.374;6.170;2022-10-31T01:14:35;21.40;;;10.23;;
74371;SDS011;62885;51.374;6.170;2022-10-31T01:17:00;20.37;;;10.37;;
74371;SDS011;62885;51.374;6.170;2022-10-31T01:19:25;20.45;;;11.10;;
74371;SDS011;62885;51.374;6.170;2022-10-31T01:21:53;15.67;;;9.77;;
74371;SDS011;62885;51.374;6.170;2022-10-31T01:24:19;18.05;;;8.73;;
74371;SDS011;62885;51.374;6.170;2022-10-31T01:26:44;18.27;;;8.75;;
74371;SDS011;62885;51.374;6.170;2022-10-31T01:29:10;19.02;;;8.75;;
74371;SDS011;62885;51.374;6.170;2022-10-31T01:31:37;16.85;;;8.70;;
74371;SDS011;62885;51.374;6.170;2022-10-31T01:34:04;17.33;;;9.38;;
74371;SDS011;62885;51.374;6.170;2022-10-31T01:36:31;17.17;;;8.60;;
74371;SDS011;62885;51.374;6.170;2022-10-31T01:38:59;15.80;;;8.48;;
74371;SDS011;62885;51.374;6.170;2022-10-31T01:41:28;19.80;;;9.55;;
74371;SDS011;62885;51.374;6.170;2022-10-31T01:46:43;16.90;;;8.73;;
74371;SDS011;62885;51.374;6.170;2022-10-31T01:51:50;14.05;;;9.02;;
74371;SDS011;62885;51.374;6.170;2022-10-31T01:54:20;18.23;;;8.95;;
74371;SDS011;62885;51.374;6.170;2022-10-31T01:56:48;14.18;;;8.77;;
74371;SDS011;62885;51.374;6.170;2022-10-31T01:59:19;16.58;;;10.02;;
74371;SDS011;62885;51.374;6.170;2022-10-31T02:01:46;16.35;;;8.35;;
74371;SDS011;62885;51.374;6.170;2022-10-31T02:04:14;17.13;;;8.57;;
74371;SDS011;62885;51.374;6.170;2022-10-31T02:09:29;20.05;;;8.73;;
74371;SDS011;62885;51.374;6.170;2022-10-31T02:11:56;15.80;;;8.07;;
74371;SDS011;62885;51.374;6.170;2022-10-31T02:14:24;19.23;;;8.38;;
74371;SDS011;62885;51.374;6.170;2022-10-31T02:16:52;15.65;;;8.30;;
74371;SDS011;62885;51.374;6.170;2022-10-31T02:19:21;18.40;;;8.50;;
74371;SDS011;62885;51.374;6.170;2022-10-31T02:22:30;13.88;;;7.88;;
74371;SDS011;62885;51.374;6.170;2022-10-31T02:27:45;17.80;;;8.98;;
74371;SDS011;62885;51.374;6.170;2022-10-31T02:35:58;15.85;;;8.98;;
74371;SDS011;62885;51.374;6.170;2022-10-31T02:39:15;19.02;;;9.80;;
74371;SDS011;62885;51.374;6.170;2022-10-31T02:41:43;17.30;;;8.30;;
74371;SDS011;62885;51.374;6.170;2022-10-31T02:44:27;16.15;;;7.68;;
74371;SDS011;62885;51.374;6.170;2022-10-31T02:47:25;13.95;;;7.85;;
74371;SDS011;62885;51.374;6.170;2022-10-31T02:52:23;16.30;;;7.93;;
74371;SDS011;62885;51.374;6.170;2022-10-31T02:54:51;16.80;;;8.80;;
74371;SDS011;62885;51.374;6.170;2022-10-31T02:57:18;16.70;;;7.65;;
74371;SDS011;62885;51.374;6.170;2022-10-31T02:59:48;14.00;;;7.90;;
74371;SDS011;62885;51.374;6.170;2022-10-31T03:10:54;15.40;;;8.15;;
74371;SDS011;62885;51.374;6.170;2022-10-31T03:19:15;15.68;;;8.02;;
74371;SDS011;62885;51.374;6.170;2022-10-31T03:21:53;14.38;;;7.95;;
74371;SDS011;62885;51.374;6.170;2022-10-31T03:24:27;13.32;;;7.95;;
74371;SDS011;62885;51.374;6.170;2022-10-31T03:26:57;14.18;;;8.38;;
74371;SDS011;62885;51.374;6.170;2022-10-31T03:29:25;17.42;;;9.15;;
74371;SDS011;62885;51.374;6.170;2022-10-31T03:32:54;15.07;;;8.50;;
74371;SDS011;62885;51.374;6.170;2022-10-31T03:34:55;21.85;;;9.18;;
74371;SDS011;62885;51.374;6.170;2022-10-31T03:37:24;11.93;;;7.88;;
74371;SDS011;62885;51.374;6.170;2022-10-31T03:39:52;17.10;;;8.98;;
74371;SDS011;62885;51.374;6.170;2022-10-31T03:42:24;13.95;;;7.78;;
74371;SDS011;62885;51.374;6.170;2022-10-31T03:44:55;16.77;;;8.15;;
74371;SDS011;62885;51.374;6.170;2022-10-31T03:47:25;18.20;;;8.70;;
74371;SDS011;62885;51.374;6.170;2022-10-31T03:49:51;15.63;;;8.50;;
74371;SDS011;62885;51.374;6.170;2022-10-31T03:52:27;12.25;;;7.68;;
74371;SDS011;62885;51.374;6.170;2022-10-31T03:54:58;14.73;;;8.32;;
74371;SDS011;62885;51.374;6.170;2022-10-31T03:57:44;16.77;;;9.05;;
74371;SDS011;62885;51.374;6.170;2022-10-31T04:00:18;17.25;;;8.23;;
74371;SDS011;62885;51.374;6.170;2022-10-31T04:02:48;16.60;;;8.50;;
74371;SDS011;62885;51.374;6.170;2022-10-31T04:05:19;17.88;;;9.20;;
74371;SDS011;62885;51.374;6.170;2022-10-31T04:07:46;15.35;;;8.48;;
74371;SDS011;62885;51.374;6.170;2022-10-31T04:10:15;17.05;;;9.02;;
74371;SDS011;62885;51.374;6.170;2022-10-31T04:12:42;16.85;;;8.35;;
74371;SDS011;62885;51.374;6.170;2022-10-31T04:15:14;17.08;;;8.73;;
74371;SDS011;62885;51.374;6.170;2022-10-31T04:17:40;14.75;;;7.93;;
74371;SDS011;62885;51.374;6.170;2022-10-31T04:20:09;15.48;;;7.95;;
74371;SDS011;62885;51.374;6.170;2022-10-31T04:22:34;15.38;;;7.88;;
74371;SDS011;62885;51.374;6.170;2022-10-31T04:25:00;17.23;;;8.02;;
74371;SDS011;62885;51.374;6.170;2022-10-31T04:27:25;15.65;;;9.15;;
74371;SDS011;62885;51.374;6.170;2022-10-31T04:29:50;17.00;;;9.73;;
74371;SDS011;62885;51.374;6.170;2022-10-31T04:32:16;16.67;;;8.35;;
74371;SDS011;62885;51.374;6.170;2022-10-31T04:34:41;16.30;;;8.35;;
74371;SDS011;62885;51.374;6.170;2022-10-31T04:37:07;15.48;;;9.30;;
74371;SDS011;62885;51.374;6.170;2022-10-31T04:39:32;16.73;;;9.60;;
74371;SDS011;62885;51.374;6.170;2022-10-31T04:41:57;16.75;;;9.25;;
74371;SDS011;62885;51.374;6.170;2022-10-31T04:44:23;18.45;;;8.00;;
74371;SDS011;62885;51.374;6.170;2022-10-31T04:46:48;15.25;;;8.57;;
74371;SDS011;62885;51.374;6.170;2022-10-31T04:49:14;14.45;;;8.48;;
74371;SDS011;62885;51.374;6.170;2022-10-31T04:51:39;17.60;;;9.32;;
74371;SDS011;62885;51.374;6.170;2022-10-31T04:54:04;21.98;;;9.10;;
74371;SDS011;62885;51.374;6.170;2022-10-31T04:56:30;16.48;;;9.85;;
74371;SDS011;62885;51.374;6.170;2022-10-31T04:58:55;19.55;;;9.65;;
74371;SDS011;62885;51.374;6.170;2022-10-31T05:01:21;17.48;;;9.75;;
74371;SDS011;62885;51.374;6.170;2022-10-31T05:03:46;16.73;;;9.68;;
74371;SDS011;62885;51.374;6.170;2022-10-31T05:06:11;16.95;;;9.07;;
74371;SDS011;62885;51.374;6.170;2022-10-31T05:08:37;17.42;;;9.05;;
74371;SDS011;62885;51.374;6.170;2022-10-31T05:11:03;18.65;;;8.70;;
74371;SDS011;62885;51.374;6.170;2022-10-31T05:13:29;17.25;;;8.52;;
74371;SDS011;62885;51.374;6.170;2022-10-31T05:15:55;14.27;;;8.55;;
74371;SDS011;62885;51.374;6.170;2022-10-31T05:18:20;14.98;;;8.60;;
74371;SDS011;62885;51.374;6.170;2022-10-31T05:20:46;15.13;;;8.80;;
74371;SDS011;62885;51.374;6.170;2022-10-31T05:23:12;17.85;;;9.75;;
74371;SDS011;62885;51.374;6.170;2022-10-31T05:25:37;15.05;;;8.85;;
74371;SDS011;62885;51.374;6.170;2022-10-31T05:28:04;18.08;;;8.75;;
74371;SDS011;62885;51.374;6.170;2022-10-31T05:30:31;14.80;;;8.93;;
74371;SDS011;62885;51.374;6.170;2022-10-31T05:32:57;14.35;;;9.05;;
74371;SDS011;62885;51.374;6.170;2022-10-31T05:35:24;18.10;;;9.68;;
74371;SDS011;62885;51.374;6.170;2022-10-31T05:37:50;19.02;;;9.45;;
74371;SDS011;62885;51.374;6.170;2022-10-31T05:40:16;21.23;;;8.70;;
74371;SDS011;62885;51.374;6.170;2022-10-31T05:42:43;15.55;;;8.73;;
74371;SDS011;62885;51.374;6.170;2022-10-31T05:45:10;16.17;;;9.70;;
74371;SDS011;62885;51.374;6.170;2022-10-31T05:47:36;15.50;;;7.30;;
74371;SDS011;62885;51.374;6.170;2022-10-31T05:50:02;18.25;;;8.63;;
74371;SDS011;62885;51.374;6.170;2022-10-31T05:52:28;16.95;;;9.15;;
74371;SDS011;62885;51.374;6.170;2022-10-31T05:54:53;15.32;;;8.98;;
74371;SDS011;62885;51.374;6.170;2022-10-31T05:57:19;14.77;;;8.43;;
74371;SDS011;62885;51.374;6.170;2022-10-31T05:59:44;18.42;;;9.68;;
74371;SDS011;62885;51.374;6.170;2022-10-31T06:02:09;17.00;;;9.43;;
74371;SDS011;62885;51.374;6.170;2022-10-31T06:04:35;17.00;;;9.32;;
74371;SDS011;62885;51.374;6.170;2022-10-31T06:07:00;16.65;;;9.68;;
74371;SDS011;62885;51.374;6.170;2022-10-31T06:09:26;15.75;;;9.75;;
74371;SDS011;62885;51.374;6.170;2022-10-31T06:11:51;15.88;;;8.55;;
74371;SDS011;62885;51.374;6.170;2022-10-31T06:14:16;15.38;;;8.52;;
74371;SDS011;62885;51.374;6.170;2022-10-31T06:16:41;13.88;;;8.80;;
74371;SDS011;62885;51.374;6.170;2022-10-31T06:19:07;16.13;;;8.85;;
74371;SDS011;62885;51.374;6.170;2022-10-31T06:21:32;19.52;;;9.10;;
74371;SDS011;62885;51.374;6.170;2022-10-31T06:23:57;18.58;;;8.98;;
74371;SDS011;62885;51.374;6.170;2022-10-31T06:26:23;15.52;;;8.95;;
74371;SDS011;62885;51.374;6.170;2022-10-31T06:28:48;16.87;;;8.83;;
74371;SDS011;62885;51.374;6.170;2022-10-31T06:31:14;15.40;;;9.68;;
74371;SDS011;62885;51.374;6.170;2022-10-31T06:33:40;16.02;;;8.90;;
74371;SDS011;62885;51.374;6.170;2022-10-31T06:36:07;21.70;;;13.95;;
74371;SDS011;62885;51.374;6.170;2022-10-31T06:38:33;31.33;;;16.15;;
74371;SDS011;62885;51.374;6.170;2022-10-31T06:41:01;21.45;;;13.85;;
74371;SDS011;62885;51.374;6.170;2022-10-31T06:43:28;17.15;;;9.85;;
74371;SDS011;62885;51.374;6.170;2022-10-31T06:45:53;15.87;;;9.60;;
74371;SDS011;62885;51.374;6.170;2022-10-31T06:48:18;14.50;;;8.90;;
74371;SDS011;62885;51.374;6.170;2022-10-31T06:50:43;14.90;;;8.48;;
74371;SDS011;62885;51.374;6.170;2022-10-31T06:53:09;14.05;;;8.10;;
74371;SDS011;62885;51.374;6.170;2022-10-31T06:55:34;17.27;;;9.20;;
74371;SDS011;62885;51.374;6.170;2022-10-31T06:58:00;15.18;;;8.18;;
74371;SDS011;62885;51.374;6.170;2022-10-31T07:00:27;12.57;;;8.75;;
74371;SDS011;62885;51.374;6.170;2022-10-31T07:02:57;13.43;;;8.23;;
74371;SDS011;62885;51.374;6.170;2022-10-31T07:05:23;15.60;;;8.98;;
74371;SDS011;62885;51.374;6.170;2022-10-31T07:07:56;14.50;;;9.77;;
74371;SDS011;62885;51.374;6.170;2022-10-31T07:10:22;18.15;;;8.73;;
74371;SDS011;62885;51.374;6.170;2022-10-31T07:12:53;16.95;;;8.98;;
74371;SDS011;62885;51.374;6.170;2022-10-31T07:15:22;18.20;;;9.00;;
74371;SDS011;62885;51.374;6.170;2022-10-31T07:17:49;19.38;;;10.48;;
74371;SDS011;62885;51.374;6.170;2022-10-31T07:20:14;27.95;;;16.45;;
74371;SDS011;62885;51.374;6.170;2022-10-31T07:22:40;22.80;;;13.13;;
74371;SDS011;62885;51.374;6.170;2022-10-31T07:25:05;21.45;;;10.73;;
74371;SDS011;62885;51.374;6.170;2022-10-31T07:27:40;16.40;;;9.30;;
74371;SDS011;62885;51.374;6.170;2022-10-31T07:30:07;17.15;;;9.90;;
74371;SDS011;62885;51.374;6.170;2022-10-31T07:32:44;18.52;;;9.77;;
74371;SDS011;62885;51.374;6.170;2022-10-31T07:35:13;18.52;;;10.18;;
74371;SDS011;62885;51.374;6.170;2022-10-31T07:37:46;19.85;;;11.57;;
74371;SDS011;62885;51.374;6.170;2022-10-31T07:40:12;18.40;;;10.35;;
74371;SDS011;62885;51.374;6.170;2022-10-31T07:42:41;19.70;;;10.93;;
74371;SDS011;62885;51.374;6.170;2022-10-31T07:47:42;17.88;;;9.80;;
74371;SDS011;62885;51.374;6.170;2022-10-31T07:50:09;25.75;;;12.80;;
74371;SDS011;62885;51.374;6.170;2022-10-31T07:52:36;24.48;;;13.63;;
74371;SDS011;62885;51.374;6.170;2022-10-31T07:55:02;23.42;;;12.07;;
74371;SDS011;62885;51.374;6.170;2022-10-31T07:57:28;19.23;;;12.10;;
74371;SDS011;62885;51.374;6.170;2022-10-31T07:59:54;24.30;;;12.95;;
74371;SDS011;62885;51.374;6.170;2022-10-31T08:02:19;21.35;;;11.50;;
74371;SDS011;62885;51.374;6.170;2022-10-31T08:04:44;19.13;;;10.93;;
74371;SDS011;62885;51.374;6.170;2022-10-31T08:07:10;20.17;;;12.10;;
74371;SDS011;62885;51.374;6.170;2022-10-31T08:09:35;20.92;;;12.65;;
74371;SDS011;62885;51.374;6.170;2022-10-31T08:12:00;18.80;;;11.60;;
74371;SDS011;62885;51.374;6.170;2022-10-31T08:14:26;24.35;;;12.15;;
74371;SDS011;62885;51.374;6.170;2022-10-31T08:16:52;20.80;;;11.25;;
74371;SDS011;62885;51.374;6.170;2022-10-31T08:19:18;21.58;;;12.00;;
74371;SDS011;62885;51.374;6.170;2022-10-31T08:21:43;21.98;;;10.70;;
74371;SDS011;62885;51.374;6.170;2022-10-31T08:24:09;25.92;;;12.20;;
74371;SDS011;62885;51.374;6.170;2022-10-31T08:26:34;20.05;;;11.35;;
74371;SDS011;62885;51.374;6.170;2022-10-31T08:28:59;18.23;;;11.23;;
74371;SDS011;62885;51.374;6.170;2022-10-31T08:31:26;21.42;;;11.65;;
74371;SDS011;62885;51.374;6.170;2022-10-31T08:33:53;21.88;;;11.82;;
74371;SDS011;62885;51.374;6.170;2022-10-31T08:36:19;20.20;;;11.23;;
74371;SDS011;62885;51.374;6.170;2022-10-31T08:38:48;20.23;;;11.05;;
74371;SDS011;62885;51.374;6.170;2022-10-31T08:41:14;21.52;;;9.55;;
74371;SDS011;62885;51.374;6.170;2022-10-31T08:43:39;18.30;;;10.27;;
74371;SDS011;62885;51.374;6.170;2022-10-31T08:46:04;18.27;;;10.70;;
74371;SDS011;62885;51.374;6.170;2022-10-31T08:48:30;20.50;;;10.20;;
74371;SDS011;62885;51.374;6.170;2022-10-31T08:50:57;19.35;;;10.35;;
74371;SDS011;62885;51.374;6.170;2022-10-31T08:53:23;20.38;;;11.10;;
74371;SDS011;62885;51.374;6.170;2022-10-31T08:55:49;22.17;;;10.88;;
74371;SDS011;62885;51.374;6.170;2022-10-31T08:58:18;17.65;;;10.57;;
74371;SDS011;62885;51.374;6.170;2022-10-31T09:00:48;17.60;;;10.35;;
74371;SDS011;62885;51.374;6.170;2022-10-31T09:03:17;22.75;;;10.45;;
74371;SDS011;62885;51.374;6.170;2022-10-31T09:05:48;18.67;;;9.63;;
74371;SDS011;62885;51.374;6.170;2022-10-31T09:08:14;15.85;;;9.60;;
74371;SDS011;62885;51.374;6.170;2022-10-31T09:10:40;18.55;;;11.40;;
74371;SDS011;62885;51.374;6.170;2022-10-31T09:13:10;21.80;;;10.05;;
74371;SDS011;62885;51.374;6.170;2022-10-31T09:15:40;17.50;;;9.25;;
74371;SDS011;62885;51.374;6.170;2022-10-31T09:18:08;18.63;;;8.82;;
74371;SDS011;62885;51.374;6.170;2022-10-31T09:20:35;16.58;;;9.27;;
74371;SDS011;62885;51.374;6.170;2022-10-31T09:23:02;18.05;;;8.48;;
74371;SDS011;62885;51.374;6.170;2022-10-31T09:25:29;18.50;;;9.27;;
74371;SDS011;62885;51.374;6.170;2022-10-31T09:27:55;17.13;;;9.13;;
74371;SDS011;62885;51.374;6.170;2022-10-31T09:30:24;17.88;;;9.60;;
74371;SDS011;62885;51.374;6.170;2022-10-31T09:32:57;15.45;;;8.75;;
74371;SDS011;62885;51.374;6.170;2022-10-31T09:35:24;18.92;;;9.52;;
74371;SDS011;62885;51.374;6.170;2022-10-31T09:37:56;20.13;;;9.20;;
74371;SDS011;62885;51.374;6.170;2022-10-31T09:40:31;16.77;;;9.48;;
74371;SDS011;62885;51.374;6.170;2022-10-31T09:45:35;13.95;;;8.15;;
74371;SDS011;62885;51.374;6.170;2022-10-31T09:48:17;16.13;;;9.05;;
74371;SDS011;62885;51.374;6.170;2022-10-31T09:50:45;16.15;;;8.55;;
74371;SDS011;62885;51.374;6.170;2022-10-31T09:56:19;12.05;;;7.47;;
74371;SDS011;62885;51.374;6.170;2022-10-31T09:58:47;18.50;;;8.75;;
74371;SDS011;62885;51.374;6.170;2022-10-31T10:01:26;16.92;;;8.55;;
74371;SDS011;62885;51.374;6.170;2022-10-31T10:03:58;16.38;;;8.75;;
74371;SDS011;62885;51.374;6.170;2022-10-31T10:06:28;13.18;;;8.85;;
74371;SDS011;62885;51.374;6.170;2022-10-31T10:08:57;14.18;;;8.25;;
74371;SDS011;62885;51.374;6.170;2022-10-31T10:11:38;13.48;;;7.95;;
74371;SDS011;62885;51.374;6.170;2022-10-31T10:25:09;14.50;;;8.35;;
74371;SDS011;62885;51.374;6.170;2022-10-31T10:30:16;14.82;;;7.78;;
74371;SDS011;62885;51.374;6.170;2022-10-31T10:32:46;13.43;;;7.57;;
74371;SDS011;62885;51.374;6.170;2022-10-31T10:37:56;15.63;;;8.68;;
74371;SDS011;62885;51.374;6.170;2022-10-31T10:40:27;15.77;;;7.47;;
74371;SDS011;62885;51.374;6.170;2022-10-31T10:43:17;12.90;;;7.25;;
74371;SDS011;62885;51.374;6.170;2022-10-31T10:48:57;13.93;;;6.65;;
74371;SDS011;62885;51.374;6.170;2022-10-31T10:54:31;14.38;;;6.78;;
74371;SDS011;62885;51.374;6.170;2022-10-31T10:59:34;13.77;;;6.78;;
74371;SDS011;62885;51.374;6.170;2022-10-31T11:02:00;13.95;;;6.32;;
74371;SDS011;62885;51.374;6.170;2022-10-31T11:04:30;12.07;;;6.43;;
74371;SDS011;62885;51.374;6.170;2022-10-31T11:09:29;12.68;;;6.68;;
74371;SDS011;62885;51.374;6.170;2022-10-31T11:11:55;13.57;;;7.53;;
74371;SDS011;62885;51.374;6.170;2022-10-31T11:14:21;15.95;;;7.40;;
74371;SDS011;62885;51.374;6.170;2022-10-31T11:16:49;15.70;;;8.23;;
74371;SDS011;62885;51.374;6.170;2022-10-31T11:19:19;17.15;;;8.52;;
74371;SDS011;62885;51.374;6.170;2022-10-31T11:21:47;16.25;;;8.15;;
74371;SDS011;62885;51.374;6.170;2022-10-31T11:24:15;15.95;;;8.90;;
74371;SDS011;62885;51.374;6.170;2022-10-31T11:26:43;19.88;;;9.20;;
74371;SDS011;62885;51.374;6.170;2022-10-31T11:31:45;17.73;;;9.38;;
74371;SDS011;62885;51.374;6.170;2022-10-31T11:34:19;13.10;;;7.18;;
74371;SDS011;62885;51.374;6.170;2022-10-31T11:36:45;16.92;;;9.10;;
74371;SDS011;62885;51.374;6.170;2022-10-31T11:39:16;17.65;;;8.55;;
74371;SDS011;62885;51.374;6.170;2022-10-31T11:41:46;19.42;;;8.65;;
74371;SDS011;62885;51.374;6.170;2022-10-31T11:46:51;18.23;;;9.52;;
74371;SDS011;62885;51.374;6.170;2022-10-31T11:49:27;16.70;;;8.70;;
74371;SDS011;62885;51.374;6.170;2022-10-31T11:54:28;15.93;;;7.57;;
74371;SDS011;62885;51.374;6.170;2022-10-31T11:57:21;13.00;;;7.32;;
74371;SDS011;62885;51.374;6.170;2022-10-31T11:59:57;16.98;;;8.55;;
74371;SDS011;62885;51.374;6.170;2022-10-31T12:02:24;14.52;;;7.97;;
74371;SDS011;62885;51.374;6.170;2022-10-31T12:04:52;18.20;;;8.43;;
74371;SDS011;62885;51.374;6.170;2022-10-31T12:07:24;19.17;;;9.23;;
74371;SDS011;62885;51.374;6.170;2022-10-31T12:09:50;18.00;;;8.55;;
74371;SDS011;62885;51.374;6.170;2022-10-31T12:12:23;18.17;;;8.90;;
74371;SDS011;62885;51.374;6.170;2022-10-31T12:23:00;12.80;;;7.78;;
74371;SDS011;62885;51.374;6.170;2022-10-31T12:30:55;16.47;;;8.10;;
74371;SDS011;62885;51.374;6.170;2022-10-31T12:33:34;16.42;;;7.80;;
74371;SDS011;62885;51.374;6.170;2022-10-31T12:36:10;15.80;;;8.18;;
74371;SDS011;62885;51.374;6.170;2022-10-31T12:41:58;18.60;;;8.60;;
74371;SDS011;62885;51.374;6.170;2022-10-31T12:49:57;14.45;;;8.15;;
74371;SDS011;62885;51.374;6.170;2022-10-31T12:52:46;16.95;;;7.40;;
74371;SDS011;62885;51.374;6.170;2022-10-31T12:58:37;16.02;;;7.68;;
74371;SDS011;62885;51.374;6.170;2022-10-31T13:01:20;15.07;;;7.65;;
74371;SDS011;62885;51.374;6.170;2022-10-31T13:03:53;11.50;;;7.22;;
74371;SDS011;62885;51.374;6.170;2022-10-31T13:06:32;17.52;;;8.20;;
74371;SDS011;62885;51.374;6.170;2022-10-31T13:09:06;17.08;;;7.50;;
74371;SDS011;62885;51.374;6.170;2022-10-31T13:11:43;13.07;;;7.03;;
74371;SDS011;62885;51.374;6.170;2022-10-31T13:16:49;13.68;;;6.60;;
74371;SDS011;62885;51.374;6.170;2022-10-31T13:19:19;14.65;;;7.10;;
74371;SDS011;62885;51.374;6.170;2022-10-31T13:21:54;13.95;;;7.80;;
74371;SDS011;62885;51.374;6.170;2022-10-31T13:24:27;16.35;;;7.07;;
74371;SDS011;62885;51.374;6.170;2022-10-31T13:27:00;17.50;;;7.10;;
74371;SDS011;62885;51.374;6.170;2022-10-31T13:29:36;16.42;;;7.13;;
74371;SDS011;62885;51.374;6.170;2022-10-31T13:32:08;18.45;;;6.75;;
74371;SDS011;62885;51.374;6.170;2022-10-31T13:34:50;13.73;;;6.78;;
74371;SDS011;62885;51.374;6.170;2022-10-31T13:37:37;13.75;;;5.95;;
74371;SDS011;62885;51.374;6.170;2022-10-31T13:40:32;12.95;;;6.03;;
74371;SDS011;62885;51.374;6.170;2022-10-31T13:45:33;14.55;;;6.15;;
74371;SDS011;62885;51.374;6.170;2022-10-31T13:48:17;11.50;;;5.72;;
74371;SDS011;62885;51.374;6.170;2022-10-31T13:53:41;12.40;;;5.30;;
74371;SDS011;62885;51.374;6.170;2022-10-31T13:56:22;10.98;;;5.05;;
74371;SDS011;62885;51.374;6.170;2022-10-31T13:58:56;12.00;;;4.90;;
74371;SDS011;62885;51.374;6.170;2022-10-31T14:01:25;9.15;;;4.28;;
74371;SDS011;62885;51.374;6.170;2022-10-31T14:04:06;10.90;;;5.15;;
74371;SDS011;62885;51.374;6.170;2022-10-31T14:06:44;12.32;;;5.22;;
74371;SDS011;62885;51.374;6.170;2022-10-31T14:09:21;11.15;;;4.47;;
74371;SDS011;62885;51.374;6.170;2022-10-31T14:11:50;16.45;;;6.55;;
74371;SDS011;62885;51.374;6.170;2022-10-31T14:14:16;13.18;;;3.90;;
74371;SDS011;62885;51.374;6.170;2022-10-31T14:16:44;15.77;;;4.30;;
74371;SDS011;62885;51.374;6.170;2022-10-31T14:19:15;9.57;;;4.22;;
74371;SDS011;62885;51.374;6.170;2022-10-31T14:21:44;11.18;;;4.90;;
74371;SDS011;62885;51.374;6.170;2022-10-31T14:24:14;11.15;;;4.40;;
74371;SDS011;62885;51.374;6.170;2022-10-31T14:26:59;17.58;;;4.43;;
74371;SDS011;62885;51.374;6.170;2022-10-31T14:29:27;9.23;;;4.70;;
74371;SDS011;62885;51.374;6.170;2022-10-31T14:46:01;14.05;;;4.10;;
74371;SDS011;62885;51.374;6.170;2022-10-31T14:51:13;13.88;;;4.32;;
74371;SDS011;62885;51.374;6.170;2022-10-31T14:53:47;13.63;;;4.95;;
74371;SDS011;62885;51.374;6.170;2022-10-31T14:58:51;10.88;;;4.10;;
74371;SDS011;62885;51.374;6.170;2022-10-31T15:04:34;7.85;;;4.05;;
74371;SDS011;62885;51.374;6.170;2022-10-31T15:06:59;10.95;;;3.95;;
74371;SDS011;62885;51.374;6.170;2022-10-31T15:09:30;10.27;;;3.63;;
74371;SDS011;62885;51.374;6.170;2022-10-31T15:11:58;8.13;;;3.70;;
74371;SDS011;62885;51.374;6.170;2022-10-31T15:14:28;7.68;;;3.35;;
74371;SDS011;62885;51.374;6.170;2022-10-31T15:17:00;10.02;;;3.80;;
74371;SDS011;62885;51.374;6.170;2022-10-31T15:19:28;10.52;;;3.67;;
74371;SDS011;62885;51.374;6.170;2022-10-31T15:21:55;8.82;;;3.38;;
74371;SDS011;62885;51.374;6.170;2022-10-31T15:24:23;12.40;;;5.65;;
74371;SDS011;62885;51.374;6.170;2022-10-31T15:26:56;9.55;;;4.22;;
74371;SDS011;62885;51.374;6.170;2022-10-31T15:29:24;10.70;;;3.90;;
74371;SDS011;62885;51.374;6.170;2022-10-31T15:31:51;10.25;;;3.78;;
74371;SDS011;62885;51.374;6.170;2022-10-31T15:37:15;14.82;;;3.65;;
74371;SDS011;62885;51.374;6.170;2022-10-31T15:39:43;11.93;;;3.70;;
74371;SDS011;62885;51.374;6.170;2022-10-31T15:44:39;10.73;;;3.50;;
74371;SDS011;62885;51.374;6.170;2022-10-31T15:47:12;9.13;;;3.67;;
74371;SDS011;62885;51.374;6.170;2022-10-31T15:49:42;15.15;;;3.67;;
74371;SDS011;62885;51.374;6.170;2022-10-31T15:52:18;11.65;;;3.85;;
74371;SDS011;62885;51.374;6.170;2022-10-31T15:55:22;9.93;;;3.45;;
74371;SDS011;62885;51.374;6.170;2022-10-31T15:57:49;14.48;;;4.95;;
74371;SDS011;62885;51.374;6.170;2022-10-31T16:00:23;8.00;;;3.25;;
74371;SDS011;62885;51.374;6.170;2022-10-31T16:03:02;8.65;;;3.17;;
74371;SDS011;62885;51.374;6.170;2022-10-31T16:05:34;10.63;;;3.35;;
74371;SDS011;62885;51.374;6.170;2022-10-31T16:08:01;9.80;;;3.88;;
74371;SDS011;62885;51.374;6.170;2022-10-31T16:10:26;8.45;;;3.70;;
74371;SDS011;62885;51.374;6.170;2022-10-31T16:12:52;9.10;;;3.65;;
74371;SDS011;62885;51.374;6.170;2022-10-31T16:15:19;9.88;;;3.28;;
74371;SDS011;62885;51.374;6.170;2022-10-31T16:17:46;8.60;;;3.83;;
74371;SDS011;62885;51.374;6.170;2022-10-31T16:20:21;13.68;;;4.25;;
74371;SDS011;62885;51.374;6.170;2022-10-31T16:22:52;7.93;;;3.72;;
74371;SDS011;62885;51.374;6.170;2022-10-31T16:27:53;9.52;;;3.80;;
74371;SDS011;62885;51.374;6.170;2022-10-31T16:32:54;12.70;;;4.50;;
74371;SDS011;62885;51.374;6.170;2022-10-31T16:35:27;12.38;;;3.90;;
74371;SDS011;62885;51.374;6.170;2022-10-31T16:38:03;13.60;;;6.80;;
74371;SDS011;62885;51.374;6.170;2022-10-31T16:40:29;13.02;;;4.32;;
74371;SDS011;62885;51.374;6.170;2022-10-31T16:42:57;10.13;;;4.00;;
74371;SDS011;62885;51.374;6.170;2022-10-31T16:45:25;11.38;;;5.63;;
74371;SDS011;62885;51.374;6.170;2022-10-31T16:47:52;10.90;;;4.78;;
74371;SDS011;62885;51.374;6.170;2022-10-31T16:50:19;8.52;;;4.47;;
74371;SDS011;62885;51.374;6.170;2022-10-31T16:52:44;11.30;;;4.47;;
74371;SDS011;62885;51.374;6.170;2022-10-31T16:55:12;7.65;;;3.70;;
74371;SDS011;62885;51.374;6.170;2022-10-31T16:57:43;7.47;;;3.83;;
74371;SDS011;62885;51.374;6.170;2022-10-31T17:00:18;10.77;;;4.93;;
74371;SDS011;62885;51.374;6.170;2022-10-31T17:02:45;13.38;;;5.63;;
74371;SDS011;62885;51.374;6.170;2022-10-31T17:05:14;10.95;;;4.85;;
74371;SDS011;62885;51.374;6.170;2022-10-31T17:07:42;10.57;;;4.55;;
74371;SDS011;62885;51.374;6.170;2022-10-31T17:10:08;9.48;;;4.47;;
74371;SDS011;62885;51.374;6.170;2022-10-31T17:12:35;10.95;;;4.22;;